Aeroporto :
LOGIN :

Iscrizione | Disclaimer

   EN    FR    IT 

 










Sommario :    VFR   VFR Marginale   IFR   IFR Intensivo   IFR Molto Intensivo
Visibilità : 
Base nubi : 
>= 8 km
>= 3000ft
5 / 8 km
1000 / 3000 ft
1500m / 5 km
500 / 1000 ft
800 / 1500m
200 / 500 ft
< 800m
< 200 ft
Simboli :   Temporali  Nebbia  Neve Forte  Precipitazioni Forti  Vento > 20 kt
SIGMETs :   Varie  Temporali  Ghiacco  Turbolenza  Onda orograficha  Ceneri Vulcaniche







- Altitudine del aeroporto : 529 ft
- Codice IATA : CHR
- Carte del aeroporto


LFLX - Chateauroux

ULTIMO METAR :
  • 220600Z AUTO 10004KT 8000 NSC 01/M02 Q1028 TEMPO 0600 FG VV///

METARs OBSOLETI :
  • 220530Z AUTO 10004KT 8000 NSC 00/M01 Q1028 TEMPO 0600 FG VV///
  • 220500Z AUTO 10003KT 8000 NSC M00/M02 Q1028 TEMPO 0600 FG VV///
  • 220430Z AUTO 06003KT 9000 NSC M00/M02 Q1028 TEMPO 0600 FG VV///
  • 220330Z AUTO 36002KT CAVOK 01/M02 Q1028 TEMPO 0600 FG VV///
  • 220300Z AUTO 00000KT CAVOK 01/M02 Q1028 TEMPO 0600 FG VV///

TAF TAF LFLX
Valido dal 22 a 06 ore il 23 a 12 ore UTC


220500Z 2206/2312 VRB03KT CAVOK
PROB30
TEMPO 2206/2208 0600 FG VV///
BECMG 2214/2217 26005KT
PROB30
TEMPO 2301/2306 0600 FG VV///
Nessun NOTAM noto per questo aeroporto.



MetMap, La meteo Aeronautica in un colpo d'occhio ! - Copyright ORBIFLY Dicembre 2007 - Disclaimer

ORBIFLY MET'MAP TEAM :

Programmazione e sviluppo : Alexandra Zaïnal
Concezione e sviluppo : Baudouin d'Aumeries
Co-Programmazione e sviluppo : Marc-Olivier Méhu
Supporto tecnico e logistico : Manuel Goepfert
Aiuto per la traduzione : Arnaldo La Scala

Contatto : metmap@orbifly.com




FONTI E CREDITI :

   NOAA